createdAt,value
2017-11-01T00:17:35.573Z,52.38
2017-11-01T00:32:34.556Z,52.61
2017-11-01T00:47:35.285Z,52.88
2017-11-01T01:02:35.415Z,53.21
2017-11-01T01:17:34.901Z,53.31
2017-11-01T01:32:34.719Z,53.50
2017-11-01T01:47:34.837Z,53.63
2017-11-01T02:32:35.927Z,52.42
2017-11-01T02:47:36.889Z,52.57
2017-11-01T03:02:34.937Z,51.59
2017-11-01T03:47:36.679Z,50.62
2017-11-01T04:02:35.040Z,50.64
2017-11-01T04:17:34.543Z,51.42
2017-11-01T04:32:35.465Z,52.24
2017-11-01T05:02:35.217Z,52.87
2017-11-01T05:17:36.801Z,52.69
2017-11-01T05:32:35.645Z,52.45
2017-11-01T06:17:37.070Z,52.07
2017-11-01T07:02:34.692Z,51.36
2017-11-01T07:17:34.965Z,47.87
2017-11-01T07:32:34.052Z,43.45
2017-11-01T07:47:35.013Z,40.42
2017-11-01T08:02:34.891Z,37.58
2017-11-01T08:17:34.560Z,35.30
2017-11-01T08:32:34.369Z,34.42
2017-11-01T08:47:34.288Z,32.79
2017-11-01T09:02:34.265Z,30.02
2017-11-01T09:17:34.595Z,28.74
2017-11-01T09:32:34.512Z,27.81
2017-11-01T09:47:34.028Z,27.01
2017-11-01T10:02:34.373Z,26.68
2017-11-01T10:17:34.917Z,26.71
2017-11-01T10:32:34.932Z,27.04
2017-11-01T10:47:34.669Z,26.85
2017-11-01T11:02:34.599Z,27.78
2017-11-01T11:17:34.530Z,28.01
2017-11-01T11:32:33.913Z,28.85
2017-11-01T11:47:34.338Z,29.42
2017-11-01T12:02:34.323Z,30.45
2017-11-01T12:17:34.256Z,31.11
2017-11-01T12:32:34.676Z,32.21
2017-11-01T12:47:35.156Z,32.92
2017-11-01T13:02:34.992Z,33.86
2017-11-01T13:17:36.631Z,34.47
2017-11-01T13:32:34.467Z,35.36
2017-11-01T13:47:34.330Z,36.81
2017-11-01T14:02:34.288Z,37.81
2017-11-01T14:17:35.785Z,39.03
2017-11-01T14:32:34.646Z,40.37
2017-11-01T14:47:34.128Z,41.11
2017-11-01T15:02:34.577Z,41.98
2017-11-01T15:17:34.997Z,43.15
2017-11-01T15:32:34.877Z,44.26
2017-11-01T15:47:34.764Z,45.33
2017-11-01T16:02:34.734Z,46.07
2017-11-01T16:17:35.194Z,46.86
2017-11-01T16:32:37.105Z,47.71
2017-11-01T17:32:34.373Z,51.04
2017-11-01T18:17:35.076Z,52.72
2017-11-01T18:32:34.460Z,53.27
2017-11-01T19:02:36.257Z,54.11
2017-11-01T19:32:34.914Z,54.79
2017-11-01T19:47:34.724Z,55.04
2017-11-01T20:02:34.645Z,55.53
2017-11-01T20:17:35.205Z,56.00
2017-11-01T20:32:35.084Z,56.81
2017-11-01T20:47:37.140Z,57.75
2017-11-01T21:02:34.953Z,58.63
2017-11-01T21:17:34.398Z,58.39
2017-11-01T21:32:34.329Z,58.80
2017-11-01T21:47:34.206Z,58.77
2017-11-01T22:02:38.557Z,59.44
2017-11-01T22:17:34.567Z,60.22
2017-11-01T22:32:33.982Z,62.04
2017-11-01T22:47:36.880Z,62.22
2017-11-01T23:02:36.402Z,62.19
2017-11-01T23:17:34.764Z,62.26
2017-11-01T23:32:36.755Z,62.31
2017-11-01T23:47:34.171Z,62.70
